createdAt,value
2022-12-27T00:01:32.127Z,4.22
2022-12-27T00:03:59.032Z,4.35
2022-12-27T00:06:27.578Z,4.97
2022-12-27T00:08:56.202Z,4.35
2022-12-27T00:11:26.362Z,3.75
2022-12-27T00:13:53.504Z,5.10
2022-12-27T00:16:21.535Z,4.38
2022-12-27T00:18:49.491Z,5.03
2022-12-27T00:21:17.390Z,4.97
2022-12-27T00:23:52.146Z,5.20
2022-12-27T00:26:24.820Z,4.25
2022-12-27T00:28:52.108Z,4.75
2022-12-27T00:31:20.944Z,4.20
2022-12-27T00:33:49.884Z,5.13
2022-12-27T00:36:22.836Z,4.88
2022-12-27T00:38:50.364Z,4.53
2022-12-27T00:41:17.942Z,4.85
2022-12-27T00:43:45.433Z,5.80
2022-12-27T00:46:13.132Z,4.07
2022-12-27T00:48:40.357Z,4.82
2022-12-27T00:51:14.879Z,4.15
2022-12-27T00:53:42.064Z,4.68
2022-12-27T00:56:11.660Z,4.38
2022-12-27T00:58:41.044Z,4.55
2022-12-27T01:01:14.019Z,4.10
2022-12-27T01:03:41.169Z,3.85
2022-12-27T01:06:13.731Z,4.32
2022-12-27T01:08:41.874Z,4.85
2022-12-27T01:11:09.537Z,4.28
2022-12-27T01:13:37.834Z,4.00
2022-12-27T01:16:12.404Z,5.60
2022-12-27T01:18:39.426Z,4.30
2022-12-27T01:21:08.563Z,4.30
2022-12-27T01:23:36.631Z,3.70
2022-12-27T01:26:05.659Z,3.95
2022-12-27T01:28:33.530Z,3.80
2022-12-27T01:31:06.235Z,4.18
2022-12-27T01:33:33.141Z,5.00
2022-12-27T01:36:12.552Z,4.28
2022-12-27T01:38:39.578Z,4.28
2022-12-27T01:41:26.443Z,4.13
2022-12-27T01:43:53.488Z,5.20
2022-12-27T01:46:20.497Z,4.13
2022-12-27T01:48:47.502Z,4.38
2022-12-27T01:51:14.658Z,5.18
2022-12-27T01:53:45.199Z,4.82
2022-12-27T01:56:19.535Z,4.75
2022-12-27T01:59:01.255Z,5.85
2022-12-27T02:01:39.918Z,4.10
2022-12-27T02:04:11.666Z,4.05
2022-12-27T02:06:40.637Z,2.45
2022-12-27T02:09:12.894Z,2.17
2022-12-27T02:11:52.631Z,2.60
2022-12-27T02:14:26.179Z,2.45
2022-12-27T02:16:57.375Z,2.60
2022-12-27T02:19:33.092Z,3.85
2022-12-27T02:22:57.660Z,3.90
2022-12-27T02:25:33.408Z,4.55
2022-12-27T02:28:21.972Z,3.95
2022-12-27T02:30:53.609Z,4.28
2022-12-27T02:33:26.073Z,4.47
2022-12-27T02:36:07.674Z,4.82
2022-12-27T02:38:41.786Z,4.45
2022-12-27T02:41:30.144Z,4.00
2022-12-27T02:44:17.005Z,4.35
2022-12-27T02:47:03.560Z,5.15
2022-12-27T02:49:51.869Z,4.53
2022-12-27T02:52:44.278Z,5.00
2022-12-27T02:55:25.663Z,4.50
2022-12-27T02:58:13.736Z,4.90
2022-12-27T03:01:42.691Z,5.68
2022-12-27T03:04:27.025Z,4.28
2022-12-27T03:07:15.644Z,4.88
2022-12-27T03:10:22.279Z,4.82
2022-12-27T03:13:22.870Z,4.75
2022-12-27T03:15:55.697Z,4.38
2022-12-27T03:18:37.702Z,6.05
2022-12-27T03:21:26.392Z,4.40
2022-12-27T03:24:15.142Z,4.57
2022-12-27T03:26:46.992Z,4.70
2022-12-27T03:29:36.399Z,4.03
2022-12-27T03:32:26.744Z,4.45
2022-12-27T03:35:15.088Z,4.43
2022-12-27T03:38:04.107Z,2.83
2022-12-27T03:41:09.826Z,3.55
2022-12-27T03:43:39.201Z,3.17
2022-12-27T03:46:33.823Z,3.30
2022-12-27T03:49:41.105Z,4.75
2022-12-27T03:52:31.708Z,3.40
2022-12-27T03:54:59.711Z,3.35
2022-12-27T03:57:27.984Z,4.18
2022-12-27T03:59:55.038Z,3.92
2022-12-27T04:02:22.127Z,3.83
2022-12-27T04:04:50.201Z,3.90
2022-12-27T04:07:17.152Z,3.83
2022-12-27T04:10:05.541Z,4.20
2022-12-27T04:12:50.763Z,3.72
2022-12-27T04:15:36.201Z,3.88
2022-12-27T04:18:21.616Z,3.58
2022-12-27T04:21:07.030Z,3.58
2022-12-27T04:23:52.433Z,3.70
2022-12-27T04:26:37.766Z,4.38
2022-12-27T04:29:23.150Z,3.45
2022-12-27T04:32:08.446Z,3.65
2022-12-27T04:34:44.191Z,3.60
2022-12-27T04:37:15.974Z,3.88
2022-12-27T04:40:04.792Z,4.20
2022-12-27T04:42:51.446Z,3.47
2022-12-27T04:45:37.309Z,4.47
2022-12-27T04:48:23.918Z,3.42
2022-12-27T04:51:09.201Z,3.40
2022-12-27T04:53:54.646Z,3.95
2022-12-27T04:56:21.553Z,4.13
2022-12-27T04:59:06.899Z,3.53
2022-12-27T05:01:52.476Z,3.72
2022-12-27T05:04:19.423Z,3.25
2022-12-27T05:06:46.540Z,3.38
2022-12-27T05:09:31.933Z,4.03
2022-12-27T05:12:17.253Z,3.53
2022-12-27T05:14:44.117Z,3.70
2022-12-27T05:17:11.255Z,3.80
2022-12-27T05:19:38.118Z,3.58
2022-12-27T05:22:23.541Z,3.75
2022-12-27T05:25:08.962Z,3.92
2022-12-27T05:27:35.802Z,4.25
2022-12-27T05:30:02.716Z,3.70
2022-12-27T05:32:29.605Z,3.13
2022-12-27T05:34:56.417Z,3.95
2022-12-27T05:37:23.300Z,5.53
2022-12-27T05:39:50.125Z,3.95
2022-12-27T05:42:17.068Z,4.35
2022-12-27T05:44:44.048Z,4.82
2022-12-27T05:47:10.925Z,4.15
2022-12-27T05:49:37.768Z,4.40
2022-12-27T05:52:04.889Z,4.85
2022-12-27T05:54:31.753Z,4.28
2022-12-27T05:56:58.640Z,5.55
2022-12-27T05:59:25.476Z,4.18
2022-12-27T06:01:52.563Z,5.07
2022-12-27T06:04:19.564Z,5.47
2022-12-27T06:06:46.408Z,5.18
2022-12-27T06:09:14.309Z,4.63
2022-12-27T06:11:41.416Z,5.05
2022-12-27T06:14:08.291Z,4.60
2022-12-27T06:16:35.296Z,4.05
2022-12-27T06:19:02.191Z,4.60
2022-12-27T06:21:29.200Z,4.97
2022-12-27T06:23:56.087Z,5.35
2022-12-27T06:26:29.007Z,4.40
2022-12-27T06:28:57.950Z,5.53
2022-12-27T06:31:26.168Z,5.68
2022-12-27T06:33:53.387Z,4.45
2022-12-27T06:36:22.979Z,4.57
2022-12-27T06:38:50.107Z,5.28
2022-12-27T06:41:18.366Z,4.72
2022-12-27T06:43:46.740Z,4.55
2022-12-27T06:46:17.899Z,4.32
2022-12-27T06:48:46.582Z,5.03
2022-12-27T06:51:15.584Z,4.75
2022-12-27T06:56:18.964Z,5.10
2022-12-27T06:58:47.736Z,5.45
2022-12-27T07:01:19.189Z,5.07
2022-12-27T07:03:54.394Z,5.53
2022-12-27T07:06:22.569Z,4.18
2022-12-27T07:08:50.732Z,4.78
2022-12-27T07:11:19.288Z,4.97
2022-12-27T07:13:49.322Z,4.90
2022-12-27T07:16:19.340Z,4.93
2022-12-27T07:18:48.354Z,4.57
2022-12-27T07:21:19.924Z,4.30
2022-12-27T07:23:47.170Z,4.68
2022-12-27T07:26:16.984Z,4.53
2022-12-27T07:28:44.167Z,5.25
2022-12-27T07:31:20.072Z,4.25
2022-12-27T07:33:47.347Z,5.72
2022-12-27T07:36:17.958Z,5.28
2022-12-27T07:38:45.037Z,6.50
2022-12-27T07:41:13.398Z,5.43
2022-12-27T07:43:40.806Z,5.00
2022-12-27T07:46:19.330Z,5.22
2022-12-27T07:48:47.449Z,6.22
2022-12-27T07:51:16.050Z,4.75
2022-12-27T07:53:43.037Z,5.47
2022-12-27T07:56:20.138Z,5.35
2022-12-27T07:58:51.415Z,4.95
2022-12-27T08:01:21.883Z,4.72
2022-12-27T08:03:49.494Z,4.38
2022-12-27T08:06:29.948Z,5.25
2022-12-27T08:08:59.644Z,6.28
2022-12-27T08:11:27.339Z,7.03
2022-12-27T08:13:54.375Z,6.28
2022-12-27T08:16:24.202Z,4.95
2022-12-27T08:18:53.129Z,5.57
2022-12-27T08:21:20.155Z,5.50
2022-12-27T08:23:47.082Z,5.57
2022-12-27T08:26:14.048Z,5.40
2022-12-27T08:28:41.139Z,5.43
2022-12-27T08:31:09.571Z,7.13
2022-12-27T08:33:37.630Z,6.80
2022-12-27T08:36:45.299Z,5.82
2022-12-27T08:38:56.197Z,5.75
2022-12-27T08:41:23.576Z,5.72
2022-12-27T08:43:50.843Z,6.05
2022-12-27T08:46:19.616Z,5.55
2022-12-27T08:48:50.561Z,6.35
2022-12-27T08:51:31.336Z,5.80
2022-12-27T08:56:27.391Z,6.53
2022-12-27T08:58:54.352Z,5.70
2022-12-27T09:01:21.590Z,6.22
2022-12-27T09:03:48.575Z,6.72
2022-12-27T09:06:22.365Z,6.25
2022-12-27T09:08:50.719Z,6.80
2022-12-27T09:11:26.475Z,5.80
2022-12-27T09:13:54.582Z,6.80
2022-12-27T09:16:24.146Z,6.47
2022-12-27T09:18:52.872Z,7.13
2022-12-27T09:21:21.118Z,6.30
2022-12-27T09:23:49.086Z,6.60
2022-12-27T09:26:18.198Z,6.20
2022-12-27T09:28:45.249Z,6.15
2022-12-27T09:31:13.185Z,6.63
2022-12-27T09:33:40.773Z,6.53
2022-12-27T09:36:11.522Z,6.22
2022-12-27T09:38:38.764Z,6.40
2022-12-27T09:41:19.316Z,6.10
2022-12-27T09:44:21.469Z,7.00
2022-12-27T09:47:11.137Z,6.25
2022-12-27T09:49:44.563Z,7.15
2022-12-27T09:52:11.371Z,5.82
2022-12-27T09:55:05.749Z,7.65
2022-12-27T09:57:44.671Z,7.35
2022-12-27T10:00:17.350Z,7.18
2022-12-27T10:02:45.170Z,6.95
2022-12-27T10:05:23.272Z,7.28
2022-12-27T10:08:12.431Z,7.63
2022-12-27T10:10:47.225Z,9.35
2022-12-27T10:13:29.176Z,8.63
2022-12-27T10:16:28.338Z,8.02
2022-12-27T10:19:25.472Z,7.88
2022-12-27T10:22:13.744Z,7.63
2022-12-27T10:24:46.446Z,6.65
2022-12-27T10:27:25.038Z,6.22
2022-12-27T10:29:55.763Z,6.43
2022-12-27T10:32:23.341Z,7.90
2022-12-27T10:35:01.343Z,8.80
2022-12-27T10:37:28.839Z,7.30
2022-12-27T10:40:01.050Z,7.70
2022-12-27T10:42:41.778Z,6.65
2022-12-27T10:45:27.091Z,6.55
2022-12-27T10:47:57.232Z,6.22
2022-12-27T10:50:28.072Z,6.78
2022-12-27T10:52:57.660Z,6.25
2022-12-27T10:55:37.273Z,6.47
2022-12-27T10:58:37.598Z,6.45
2022-12-27T11:01:04.717Z,5.63
2022-12-27T11:03:32.268Z,6.07
2022-12-27T11:06:15.683Z,6.28
2022-12-27T11:08:42.623Z,5.85
2022-12-27T11:11:25.108Z,6.30
2022-12-27T11:16:25.577Z,6.55
2022-12-27T11:18:55.687Z,6.35
2022-12-27T11:21:27.752Z,6.00
2022-12-27T11:24:02.619Z,5.80
2022-12-27T11:26:53.656Z,6.22
2022-12-27T11:29:24.318Z,6.38
2022-12-27T11:31:52.615Z,7.10
2022-12-27T11:34:25.190Z,6.00
2022-12-27T11:36:56.164Z,5.97
2022-12-27T11:39:39.286Z,5.65
2022-12-27T11:42:22.335Z,5.95
2022-12-27T11:45:27.184Z,5.72
2022-12-27T11:48:06.184Z,6.78
2022-12-27T11:51:01.741Z,7.13
2022-12-27T11:53:55.840Z,6.82
2022-12-27T11:56:32.285Z,6.22
2022-12-27T11:59:46.798Z,6.68
2022-12-27T12:02:33.820Z,6.63
2022-12-27T12:05:09.753Z,6.30
2022-12-27T12:07:36.676Z,7.07
2022-12-27T12:10:17.075Z,6.10
2022-12-27T12:13:14.727Z,6.20
2022-12-27T12:16:29.307Z,6.57
2022-12-27T12:19:18.887Z,6.22
2022-12-27T12:21:55.120Z,6.10
2022-12-27T12:24:54.424Z,6.07
2022-12-27T12:27:30.260Z,5.90
2022-12-27T12:30:26.844Z,6.68
2022-12-27T12:33:35.998Z,6.28
2022-12-27T12:36:24.735Z,5.70
2022-12-27T12:39:11.995Z,5.00
2022-12-27T12:42:05.212Z,4.47
2022-12-27T12:44:44.200Z,4.63
2022-12-27T12:47:22.882Z,4.20
2022-12-27T12:50:14.770Z,4.15
2022-12-27T12:52:51.181Z,4.03
2022-12-27T12:55:46.104Z,4.95
2022-12-27T12:58:33.251Z,4.47
2022-12-27T13:01:36.529Z,5.30
2022-12-27T13:04:58.912Z,5.88
2022-12-27T13:07:54.926Z,5.20
2022-12-27T13:10:44.158Z,5.13
2022-12-27T13:13:36.849Z,4.85
2022-12-27T13:16:03.731Z,4.18
2022-12-27T13:18:58.176Z,4.53
2022-12-27T13:21:49.239Z,4.43
2022-12-27T13:24:31.032Z,4.72
2022-12-27T13:27:16.777Z,4.30
2022-12-27T13:30:07.468Z,4.43
2022-12-27T13:32:53.736Z,4.68
2022-12-27T13:35:39.149Z,4.75
2022-12-27T13:38:21.056Z,4.78
2022-12-27T13:41:15.265Z,4.60
2022-12-27T13:44:01.633Z,3.90
2022-12-27T13:46:42.458Z,4.80
2022-12-27T13:49:37.474Z,4.38
2022-12-27T13:52:57.542Z,5.28
2022-12-27T13:55:57.332Z,5.20
2022-12-27T13:58:46.254Z,3.35
2022-12-27T14:01:25.270Z,4.43
2022-12-27T14:04:09.819Z,3.80
2022-12-27T14:07:04.420Z,4.53
2022-12-27T14:09:48.335Z,4.20
2022-12-27T14:12:41.270Z,4.68
2022-12-27T14:15:15.310Z,4.07
2022-12-27T14:18:01.611Z,5.00
2022-12-27T14:20:52.639Z,4.43
2022-12-27T14:23:37.962Z,4.05
2022-12-27T14:26:26.579Z,3.75
2022-12-27T14:29:14.694Z,4.10
2022-12-27T14:31:41.614Z,5.45
2022-12-27T14:34:39.773Z,3.88
2022-12-27T14:37:34.397Z,3.90
2022-12-27T14:40:19.919Z,3.90
2022-12-27T14:43:11.911Z,3.50
2022-12-27T14:46:19.748Z,4.50
2022-12-27T14:49:08.708Z,3.50
2022-12-27T14:52:02.366Z,3.20
2022-12-27T14:54:45.549Z,3.63
2022-12-27T14:57:46.356Z,3.78
2022-12-27T15:00:24.634Z,3.88
2022-12-27T15:03:11.573Z,4.22
2022-12-27T15:06:00.244Z,3.97
2022-12-27T15:08:41.088Z,4.82
2022-12-27T15:11:13.915Z,4.43
2022-12-27T15:13:55.303Z,4.22
2022-12-27T15:16:37.335Z,4.90
2022-12-27T15:19:34.397Z,4.40
2022-12-27T15:22:12.044Z,4.70
2022-12-27T15:24:49.584Z,3.70
2022-12-27T15:27:54.915Z,5.13
2022-12-27T15:31:06.663Z,3.90
2022-12-27T15:33:36.436Z,4.10
2022-12-27T15:36:15.759Z,4.55
2022-12-27T15:38:54.463Z,3.88
2022-12-27T15:41:33.977Z,3.80
2022-12-27T15:44:25.508Z,4.00
2022-12-27T15:47:26.563Z,4.88
2022-12-27T15:50:24.549Z,4.28
2022-12-27T15:52:53.070Z,4.53
2022-12-27T15:55:29.702Z,3.72
2022-12-27T15:58:14.923Z,4.38
2022-12-27T16:00:43.708Z,4.20
2022-12-27T16:03:32.456Z,4.13
2022-12-27T16:06:00.318Z,5.10
2022-12-27T16:08:32.528Z,4.68
2022-12-27T16:11:00.463Z,4.53
2022-12-27T16:13:42.665Z,5.03
2022-12-27T16:16:29.547Z,4.72
2022-12-27T16:19:16.598Z,4.25
2022-12-27T16:21:46.292Z,4.78
2022-12-27T16:24:24.761Z,5.25
2022-12-27T16:27:00.657Z,4.80
2022-12-27T16:29:36.719Z,5.25
2022-12-27T16:32:19.918Z,5.38
2022-12-27T16:34:51.477Z,5.35
2022-12-27T16:37:44.514Z,5.15
2022-12-27T16:40:21.097Z,5.50
2022-12-27T16:43:17.299Z,4.30
2022-12-27T16:46:16.669Z,4.88
2022-12-27T16:48:58.495Z,7.60
2022-12-27T16:51:54.769Z,4.75
2022-12-27T16:54:49.816Z,5.40
2022-12-27T16:57:25.503Z,4.40
2022-12-27T17:00:00.355Z,4.22
2022-12-27T17:02:46.534Z,4.20
2022-12-27T17:05:16.667Z,5.38
2022-12-27T17:07:48.970Z,4.68
2022-12-27T17:13:16.935Z,4.15
2022-12-27T17:16:07.946Z,5.05
2022-12-27T17:18:49.563Z,6.18
2022-12-27T17:21:30.205Z,4.70
2022-12-27T17:24:09.889Z,4.78
2022-12-27T17:27:01.443Z,4.75
2022-12-27T17:29:29.938Z,4.43
2022-12-27T17:32:06.621Z,3.90
2022-12-27T17:34:49.426Z,4.53
2022-12-27T17:37:25.248Z,3.92
2022-12-27T17:40:05.185Z,4.00
2022-12-27T17:43:12.467Z,4.30
2022-12-27T17:46:01.096Z,5.80
2022-12-27T17:48:32.556Z,4.50
2022-12-27T17:51:09.576Z,3.53
2022-12-27T17:54:11.055Z,4.80
2022-12-27T17:57:17.788Z,3.92
2022-12-27T17:59:46.902Z,4.18
2022-12-27T18:02:34.406Z,4.45
2022-12-27T18:05:04.803Z,4.10
2022-12-27T18:07:33.953Z,3.67
2022-12-27T18:10:21.135Z,4.47
2022-12-27T18:12:58.926Z,3.78
2022-12-27T18:15:28.436Z,3.42
2022-12-27T18:17:59.018Z,3.72
2022-12-27T18:20:33.475Z,3.78
2022-12-27T18:23:03.305Z,4.78
2022-12-27T18:25:40.466Z,3.70
2022-12-27T18:28:18.141Z,4.28
2022-12-27T18:30:53.383Z,4.43
2022-12-27T18:33:33.484Z,3.83
2022-12-27T18:36:04.293Z,3.40
2022-12-27T18:38:39.145Z,3.63
2022-12-27T18:41:15.160Z,3.45
2022-12-27T18:43:46.216Z,3.40
2022-12-27T18:46:36.493Z,2.78
2022-12-27T18:49:04.650Z,3.47
2022-12-27T18:51:37.741Z,4.90
2022-12-27T18:54:31.003Z,3.70
2022-12-27T18:57:00.689Z,3.67
2022-12-27T18:59:30.546Z,3.20
2022-12-27T19:02:00.880Z,4.20
2022-12-27T19:04:30.899Z,3.65
2022-12-27T19:07:00.617Z,5.20
2022-12-27T19:09:31.064Z,3.90
2022-12-27T19:12:00.880Z,3.90
2022-12-27T19:14:46.339Z,3.97
2022-12-27T19:17:39.704Z,3.75
2022-12-27T19:20:17.281Z,3.10
2022-12-27T19:22:53.105Z,3.65
2022-12-27T19:25:29.312Z,3.20
2022-12-27T19:28:10.164Z,3.42
2022-12-27T19:30:39.483Z,3.35
2022-12-27T19:33:13.122Z,4.38
2022-12-27T19:35:41.904Z,3.60
2022-12-27T19:38:23.292Z,3.45
2022-12-27T19:40:58.083Z,3.95
2022-12-27T19:43:33.626Z,3.42
2022-12-27T19:46:00.515Z,3.50
2022-12-27T19:48:27.559Z,4.43
2022-12-27T19:50:55.073Z,4.43
2022-12-27T19:53:32.277Z,3.72
2022-12-27T19:55:59.243Z,4.10
2022-12-27T19:58:27.894Z,4.65
2022-12-27T20:00:55.452Z,5.50
2022-12-27T20:03:22.400Z,4.40
2022-12-27T20:06:14.860Z,4.60
2022-12-27T20:08:42.521Z,3.03
2022-12-27T20:11:15.253Z,4.38
2022-12-27T20:13:42.266Z,3.72
2022-12-27T20:16:12.123Z,4.32
2022-12-27T20:18:43.236Z,3.97
2022-12-27T20:21:17.924Z,4.28
2022-12-27T20:23:45.089Z,3.67
2022-12-27T20:26:13.869Z,4.07
2022-12-27T20:28:41.204Z,3.88
2022-12-27T20:31:09.822Z,4.00
2022-12-27T20:33:37.149Z,4.20
2022-12-27T20:36:04.417Z,4.38
2022-12-27T20:38:32.254Z,4.43
2022-12-27T20:41:14.993Z,3.78
2022-12-27T20:43:42.500Z,5.07
2022-12-27T20:46:12.169Z,4.05
2022-12-27T20:48:40.819Z,3.60
2022-12-27T20:51:13.867Z,4.60
2022-12-27T20:53:40.760Z,3.17
2022-12-27T20:56:09.015Z,3.60
2022-12-27T20:58:36.041Z,4.18
2022-12-27T21:01:11.468Z,3.60
2022-12-27T21:03:39.298Z,3.60
2022-12-27T21:06:14.964Z,3.22
2022-12-27T21:08:47.833Z,3.63
2022-12-27T21:11:20.038Z,3.05
2022-12-27T21:13:48.863Z,3.47
2022-12-27T21:16:19.531Z,3.38
2022-12-27T21:18:46.947Z,3.30
2022-12-27T21:21:19.059Z,3.08
2022-12-27T21:23:47.174Z,3.60
2022-12-27T21:26:22.227Z,3.33
2022-12-27T21:28:49.744Z,3.58
2022-12-27T21:31:17.838Z,4.10
2022-12-27T21:33:45.630Z,3.53
2022-12-27T21:36:14.822Z,4.05
2022-12-27T21:38:42.040Z,3.95
2022-12-27T21:41:30.673Z,4.65
2022-12-27T21:43:57.737Z,4.40
2022-12-27T21:46:33.169Z,3.60
2022-12-27T21:49:02.492Z,4.47
2022-12-27T21:51:31.122Z,3.25
2022-12-27T21:53:58.316Z,4.07
2022-12-27T21:56:25.551Z,3.97
2022-12-27T21:58:55.362Z,7.35
2022-12-27T22:01:25.050Z,3.63
2022-12-27T22:03:53.384Z,4.18
2022-12-27T22:06:27.606Z,3.20
2022-12-27T22:08:59.781Z,4.35
2022-12-27T22:11:29.428Z,4.60
2022-12-27T22:13:56.551Z,3.78
2022-12-27T22:16:25.932Z,3.85
2022-12-27T22:18:55.873Z,3.92
2022-12-27T22:21:26.831Z,3.42
2022-12-27T22:23:55.692Z,3.30
2022-12-27T22:26:31.971Z,3.35
2022-12-27T22:28:59.488Z,3.80
2022-12-27T22:31:30.273Z,3.28
2022-12-27T22:33:57.389Z,3.35
2022-12-27T22:36:25.876Z,3.42
2022-12-27T22:38:55.435Z,3.75
2022-12-27T22:41:28.276Z,4.47
2022-12-27T22:43:57.919Z,4.28
2022-12-27T22:46:25.509Z,3.40
2022-12-27T22:48:58.086Z,3.80
2022-12-27T22:51:30.355Z,3.88
2022-12-27T22:56:27.355Z,4.05
2022-12-27T22:58:54.324Z,3.90
2022-12-27T23:01:24.346Z,3.63
2022-12-27T23:03:51.588Z,4.00
2022-12-27T23:06:18.619Z,4.03
2022-12-27T23:08:45.751Z,4.30
2022-12-27T23:11:18.794Z,4.35
2022-12-27T23:13:46.479Z,4.25
2022-12-27T23:16:13.726Z,4.45
2022-12-27T23:18:40.650Z,4.93
2022-12-27T23:21:21.799Z,4.60
2022-12-27T23:23:52.060Z,5.30
2022-12-27T23:26:21.974Z,3.38
2022-12-27T23:28:50.502Z,5.03
2022-12-27T23:31:19.156Z,4.22
2022-12-27T23:33:46.165Z,4.28
2022-12-27T23:36:13.907Z,4.18
2022-12-27T23:38:42.355Z,4.40
2022-12-27T23:41:14.246Z,5.00
2022-12-27T23:43:52.280Z,4.47
2022-12-27T23:46:29.984Z,4.72
2022-12-27T23:48:58.899Z,4.28
2022-12-27T23:51:26.868Z,4.70
2022-12-27T23:53:54.179Z,3.92
2022-12-27T23:56:22.623Z,4.20
2022-12-27T23:58:51.617Z,4.32
